sensor_id;sensor_type;location;lat;lon;timestamp;temperature;humidity
17986;DHT22;9118;48.122;11.546;2022-12-18T00:01:36;-1.00;99.90
17986;DHT22;9118;48.122;11.546;2022-12-18T00:04:21;-1.10;99.90
17986;DHT22;9118;48.122;11.546;2022-12-18T00:06:48;-1.20;99.90
17986;DHT22;9118;48.122;11.546;2022-12-18T00:09:15;-1.10;99.90
17986;DHT22;9118;48.122;11.546;2022-12-18T00:11:43;-1.40;99.90
17986;DHT22;9118;48.122;11.546;2022-12-18T00:14:13;-1.30;99.90
17986;DHT22;9118;48.122;11.546;2022-12-18T00:16:42;-1.30;99.90
17986;DHT22;9118;48.122;11.546;2022-12-18T00:19:10;-1.30;99.90
17986;DHT22;9118;48.122;11.546;2022-12-18T00:21:41;-1.20;99.90
17986;DHT22;9118;48.122;11.546;2022-12-18T00:24:09;-1.20;99.90
17986;DHT22;9118;48.122;11.546;2022-12-18T00:26:37;-1.30;99.90
17986;DHT22;9118;48.122;11.546;2022-12-18T00:29:06;-1.10;99.90
17986;DHT22;9118;48.122;11.546;2022-12-18T00:31:35;-1.40;99.90
17986;DHT22;9118;48.122;11.546;2022-12-18T00:34:04;-1.50;99.90
17986;DHT22;9118;48.122;11.546;2022-12-18T00:36:32;-1.50;99.90
17986;DHT22;9118;48.122;11.546;2022-12-18T00:39:03;-0.80;99.90
17986;DHT22;9118;48.122;11.546;2022-12-18T00:41:30;-1.30;99.90
17986;DHT22;9118;48.122;11.546;2022-12-18T00:44:16;-1.20;99.90
17986;DHT22;9118;48.122;11.546;2022-12-18T00:46:46;-1.10;99.90
17986;DHT22;9118;48.122;11.546;2022-12-18T00:49:14;-1.10;99.90
17986;DHT22;9118;48.122;11.546;2022-12-18T00:51:42;-1.10;99.90
17986;DHT22;9118;48.122;11.546;2022-12-18T00:54:09;-0.30;99.90
17986;DHT22;9118;48.122;11.546;2022-12-18T00:56:38;-1.40;99.90
17986;DHT22;9118;48.122;11.546;2022-12-18T00:59:05;-1.10;99.90
17986;DHT22;9118;48.122;11.546;2022-12-18T01:01:35;-1.00;99.90
17986;DHT22;9118;48.122;11.546;2022-12-18T01:04:04;-1.10;99.90
17986;DHT22;9118;48.122;11.546;2022-12-18T01:06:32;-1.10;99.90
17986;DHT22;9118;48.122;11.546;2022-12-18T01:08:59;-1.30;99.90
17986;DHT22;9118;48.122;11.546;2022-12-18T01:11:26;-0.40;99.90
17986;DHT22;9118;48.122;11.546;2022-12-18T01:13:54;-1.10;99.90
17986;DHT22;9118;48.122;11.546;2022-12-18T01:16:22;-1.20;99.90
17986;DHT22;9118;48.122;11.546;2022-12-18T01:18:52;-1.20;99.90
17986;DHT22;9118;48.122;11.546;2022-12-18T01:21:23;-0.50;99.90
17986;DHT22;9118;48.122;11.546;2022-12-18T01:23:54;-1.20;99.90
17986;DHT22;9118;48.122;11.546;2022-12-18T01:26:23;-0.80;99.90
17986;DHT22;9118;48.122;11.546;2022-12-18T01:28:50;-0.40;99.90
17986;DHT22;9118;48.122;11.546;2022-12-18T01:31:19;-1.30;99.90
17986;DHT22;9118;48.122;11.546;2022-12-18T01:33:49;-0.90;99.90
17986;DHT22;9118;48.122;11.546;2022-12-18T01:36:19;-1.20;99.90
17986;DHT22;9118;48.122;11.546;2022-12-18T01:38:48;-1.00;99.90
17986;DHT22;9118;48.122;11.546;2022-12-18T01:41:17;-1.00;99.90
17986;DHT22;9118;48.122;11.546;2022-12-18T01:43:48;-1.60;99.90
17986;DHT22;9118;48.122;11.546;2022-12-18T01:46:17;-1.40;99.90
17986;DHT22;9118;48.122;11.546;2022-12-18T01:48:47;-1.20;99.90
17986;DHT22;9118;48.122;11.546;2022-12-18T01:51:15;-0.70;99.90
17986;DHT22;9118;48.122;11.546;2022-12-18T01:53:43;-1.30;99.90
17986;DHT22;9118;48.122;11.546;2022-12-18T01:56:16;-0.30;99.90
17986;DHT22;9118;48.122;11.546;2022-12-18T01:58:49;-1.10;99.90
17986;DHT22;9118;48.122;11.546;2022-12-18T02:01:18;-1.60;99.90
17986;DHT22;9118;48.122;11.546;2022-12-18T02:03:46;-1.10;99.90
17986;DHT22;9118;48.122;11.546;2022-12-18T02:06:16;-1.10;99.90
17986;DHT22;9118;48.122;11.546;2022-12-18T02:08:55;-1.10;99.90
17986;DHT22;9118;48.122;11.546;2022-12-18T02:11:36;-1.10;99.90
17986;DHT22;9118;48.122;11.546;2022-12-18T02:14:16;-1.20;99.90
17986;DHT22;9118;48.122;11.546;2022-12-18T02:16:48;-1.20;99.90
17986;DHT22;9118;48.122;11.546;2022-12-18T02:19:32;-0.60;99.90
17986;DHT22;9118;48.122;11.546;2022-12-18T02:22:12;-1.40;99.90
17986;DHT22;9118;48.122;11.546;2022-12-18T02:24:51;-0.60;99.90
17986;DHT22;9118;48.122;11.546;2022-12-18T02:27:22;-1.30;99.90
17986;DHT22;9118;48.122;11.546;2022-12-18T02:29:51;-1.30;99.90
17986;DHT22;9118;48.122;11.546;2022-12-18T02:32:21;-1.20;99.90
17986;DHT22;9118;48.122;11.546;2022-12-18T02:34:52;-1.40;99.90
17986;DHT22;9118;48.122;11.546;2022-12-18T02:37:21;-1.40;99.90
17986;DHT22;9118;48.122;11.546;2022-12-18T02:39:51;-1.30;99.90
17986;DHT22;9118;48.122;11.546;2022-12-18T02:42:21;-1.30;99.90
17986;DHT22;9118;48.122;11.546;2022-12-18T02:44:50;-1.30;99.90
17986;DHT22;9118;48.122;11.546;2022-12-18T02:47:24;-1.90;99.90
17986;DHT22;9118;48.122;11.546;2022-12-18T02:49:59;-1.60;99.90
17986;DHT22;9118;48.122;11.546;2022-12-18T02:52:34;-0.30;99.90
17986;DHT22;9118;48.122;11.546;2022-12-18T02:55:12;-2.20;99.90
17986;DHT22;9118;48.122;11.546;2022-12-18T02:57:45;-1.80;99.90
17986;DHT22;9118;48.122;11.546;2022-12-18T03:00:16;-2.20;99.90
17986;DHT22;9118;48.122;11.546;2022-12-18T03:02:48;-2.00;99.90
17986;DHT22;9118;48.122;11.546;2022-12-18T03:05:22;-1.70;99.90
17986;DHT22;9118;48.122;11.546;2022-12-18T03:07:53;-1.40;99.90
17986;DHT22;9118;48.122;11.546;2022-12-18T03:10:27;-1.50;99.90
17986;DHT22;9118;48.122;11.546;2022-12-18T03:13:02;-1.00;99.90
17986;DHT22;9118;48.122;11.546;2022-12-18T03:15:31;-1.40;99.90
17986;DHT22;9118;48.122;11.546;2022-12-18T03:18:04;-1.50;99.90
17986;DHT22;9118;48.122;11.546;2022-12-18T03:20:34;-1.50;99.90
17986;DHT22;9118;48.122;11.546;2022-12-18T03:23:07;-1.50;99.90
17986;DHT22;9118;48.122;11.546;2022-12-18T03:25:38;-1.10;99.90
17986;DHT22;9118;48.122;11.546;2022-12-18T03:28:10;-1.30;99.90
17986;DHT22;9118;48.122;11.546;2022-12-18T03:30:40;-1.60;99.90
17986;DHT22;9118;48.122;11.546;2022-12-18T03:33:12;-1.50;99.90
17986;DHT22;9118;48.122;11.546;2022-12-18T03:35:43;-1.60;99.90
17986;DHT22;9118;48.122;11.546;2022-12-18T03:38:11;-1.60;99.90
17986;DHT22;9118;48.122;11.546;2022-12-18T03:40:48;-1.60;99.90
17986;DHT22;9118;48.122;11.546;2022-12-18T03:43:24;-1.30;99.90
17986;DHT22;9118;48.122;11.546;2022-12-18T03:45:57;-1.80;99.90
17986;DHT22;9118;48.122;11.546;2022-12-18T03:48:29;-1.40;99.90
17986;DHT22;9118;48.122;11.546;2022-12-18T03:51:00;-1.40;99.90
17986;DHT22;9118;48.122;11.546;2022-12-18T03:53:35;-1.40;99.90
17986;DHT22;9118;48.122;11.546;2022-12-18T03:56:04;-1.20;99.90
17986;DHT22;9118;48.122;11.546;2022-12-18T03:58:34;-1.30;99.90
17986;DHT22;9118;48.122;11.546;2022-12-18T04:01:05;-1.30;99.90
17986;DHT22;9118;48.122;11.546;2022-12-18T04:03:36;-1.30;99.90
17986;DHT22;9118;48.122;11.546;2022-12-18T04:06:05;-1.10;99.90
17986;DHT22;9118;48.122;11.546;2022-12-18T04:08:33;-1.20;99.90
17986;DHT22;9118;48.122;11.546;2022-12-18T04:11:02;-1.80;99.90
17986;DHT22;9118;48.122;11.546;2022-12-18T04:13:32;-1.20;99.90
17986;DHT22;9118;48.122;11.546;2022-12-18T04:16:01;-1.10;99.90
17986;DHT22;9118;48.122;11.546;2022-12-18T04:18:28;-1.10;99.90
17986;DHT22;9118;48.122;11.546;2022-12-18T04:21:00;-1.60;99.90
17986;DHT22;9118;48.122;11.546;2022-12-18T04:23:27;-0.60;99.90
17986;DHT22;9118;48.122;11.546;2022-12-18T04:25:54;-1.10;99.90
17986;DHT22;9118;48.122;11.546;2022-12-18T04:28:21;-1.20;99.90
17986;DHT22;9118;48.122;11.546;2022-12-18T04:30:48;-1.30;99.90
17986;DHT22;9118;48.122;11.546;2022-12-18T04:33:18;-1.90;99.90
17986;DHT22;9118;48.122;11.546;2022-12-18T04:35:46;-1.30;99.90
17986;DHT22;9118;48.122;11.546;2022-12-18T04:38:13;-1.40;99.90
17986;DHT22;9118;48.122;11.546;2022-12-18T04:40:40;-1.30;99.90
17986;DHT22;9118;48.122;11.546;2022-12-18T04:43:07;-1.30;99.90
17986;DHT22;9118;48.122;11.546;2022-12-18T04:45:35;-1.20;99.90
17986;DHT22;9118;48.122;11.546;2022-12-18T04:48:03;-1.30;99.90
17986;DHT22;9118;48.122;11.546;2022-12-18T04:50:31;-1.30;99.90
17986;DHT22;9118;48.122;11.546;2022-12-18T04:52:59;-0.70;99.90
17986;DHT22;9118;48.122;11.546;2022-12-18T04:55:26;-1.40;99.90
17986;DHT22;9118;48.122;11.546;2022-12-18T04:57:53;-1.30;99.90
17986;DHT22;9118;48.122;11.546;2022-12-18T05:00:21;-1.30;99.90
17986;DHT22;9118;48.122;11.546;2022-12-18T05:02:48;-0.70;99.90
17986;DHT22;9118;48.122;11.546;2022-12-18T05:05:15;-1.20;99.90
17986;DHT22;9118;48.122;11.546;2022-12-18T05:07:43;-1.20;99.90
17986;DHT22;9118;48.122;11.546;2022-12-18T05:10:10;-1.50;99.90
17986;DHT22;9118;48.122;11.546;2022-12-18T05:12:38;-1.60;99.90
17986;DHT22;9118;48.122;11.546;2022-12-18T05:15:23;-1.80;99.90
17986;DHT22;9118;48.122;11.546;2022-12-18T05:17:50;-1.50;99.90
17986;DHT22;9118;48.122;11.546;2022-12-18T05:20:18;-1.60;99.90
17986;DHT22;9118;48.122;11.546;2022-12-18T05:22:47;-1.60;99.90
17986;DHT22;9118;48.122;11.546;2022-12-18T05:25:14;-1.70;99.90
17986;DHT22;9118;48.122;11.546;2022-12-18T05:27:41;-1.60;99.90
17986;DHT22;9118;48.122;11.546;2022-12-18T05:30:09;-1.60;99.90
17986;DHT22;9118;48.122;11.546;2022-12-18T05:32:37;-1.60;99.90
17986;DHT22;9118;48.122;11.546;2022-12-18T05:35:06;-2.40;99.90
17986;DHT22;9118;48.122;11.546;2022-12-18T05:37:33;-1.70;99.90
17986;DHT22;9118;48.122;11.546;2022-12-18T05:40:04;-1.70;99.90
17986;DHT22;9118;48.122;11.546;2022-12-18T05:42:31;-1.70;99.90
17986;DHT22;9118;48.122;11.546;2022-12-18T05:44:58;-1.50;99.90
17986;DHT22;9118;48.122;11.546;2022-12-18T05:47:26;-0.90;99.90
17986;DHT22;9118;48.122;11.546;2022-12-18T05:49:54;-1.50;99.90
17986;DHT22;9118;48.122;11.546;2022-12-18T05:52:21;-1.30;99.90
17986;DHT22;9118;48.122;11.546;2022-12-18T05:54:48;-1.40;99.90
17986;DHT22;9118;48.122;11.546;2022-12-18T05:57:17;-1.50;99.90
17986;DHT22;9118;48.122;11.546;2022-12-18T05:59:44;-0.70;99.90
17986;DHT22;9118;48.122;11.546;2022-12-18T06:02:11;-1.00;99.90
17986;DHT22;9118;48.122;11.546;2022-12-18T06:04:38;-1.30;99.90
17986;DHT22;9118;48.122;11.546;2022-12-18T06:07:05;-1.40;99.90
17986;DHT22;9118;48.122;11.546;2022-12-18T06:09:32;-1.40;99.90
17986;DHT22;9118;48.122;11.546;2022-12-18T06:11:59;-2.00;99.90
17986;DHT22;9118;48.122;11.546;2022-12-18T06:14:28;-1.40;99.90
17986;DHT22;9118;48.122;11.546;2022-12-18T06:16:55;-1.60;99.90
17986;DHT22;9118;48.122;11.546;2022-12-18T06:19:22;-1.60;99.90
17986;DHT22;9118;48.122;11.546;2022-12-18T06:21:49;-1.60;99.90
17986;DHT22;9118;48.122;11.546;2022-12-18T06:24:16;-1.70;99.90
17986;DHT22;9118;48.122;11.546;2022-12-18T06:26:43;-1.70;99.90
17986;DHT22;9118;48.122;11.546;2022-12-18T06:29:10;-2.10;99.90
17986;DHT22;9118;48.122;11.546;2022-12-18T06:31:39;-1.30;99.90
17986;DHT22;9118;48.122;11.546;2022-12-18T06:34:06;-1.70;99.90
17986;DHT22;9118;48.122;11.546;2022-12-18T06:36:33;-1.70;99.90
17986;DHT22;9118;48.122;11.546;2022-12-18T06:39:00;-1.70;99.90
17986;DHT22;9118;48.122;11.546;2022-12-18T06:41:28;-1.70;99.90
17986;DHT22;9118;48.122;11.546;2022-12-18T06:43:55;-1.60;99.90
17986;DHT22;9118;48.122;11.546;2022-12-18T06:46:22;-1.60;99.90
17986;DHT22;9118;48.122;11.546;2022-12-18T06:48:50;-1.50;99.90
17986;DHT22;9118;48.122;11.546;2022-12-18T06:51:19;-1.00;99.90
17986;DHT22;9118;48.122;11.546;2022-12-18T06:53:46;-1.40;99.90
17986;DHT22;9118;48.122;11.546;2022-12-18T06:56:13;-1.10;99.90
17986;DHT22;9118;48.122;11.546;2022-12-18T06:58:40;-1.40;99.90
17986;DHT22;9118;48.122;11.546;2022-12-18T07:01:09;-1.80;99.90
17986;DHT22;9118;48.122;11.546;2022-12-18T07:03:37;-1.60;99.90
17986;DHT22;9118;48.122;11.546;2022-12-18T07:06:06;-1.80;99.90
17986;DHT22;9118;48.122;11.546;2022-12-18T07:08:33;-1.90;99.90
17986;DHT22;9118;48.122;11.546;2022-12-18T07:11:03;-1.00;99.90
17986;DHT22;9118;48.122;11.546;2022-12-18T07:13:30;-1.40;99.90
17986;DHT22;9118;48.122;11.546;2022-12-18T07:16:06;-1.70;99.90
17986;DHT22;9118;48.122;11.546;2022-12-18T07:18:34;-1.60;99.90
17986;DHT22;9118;48.122;11.546;2022-12-18T07:21:05;-1.90;99.90
17986;DHT22;9118;48.122;11.546;2022-12-18T07:23:33;-1.50;99.90
17986;DHT22;9118;48.122;11.546;2022-12-18T07:26:02;-1.30;99.90
17986;DHT22;9118;48.122;11.546;2022-12-18T07:28:30;-1.40;99.90
17986;DHT22;9118;48.122;11.546;2022-12-18T07:30:57;-1.50;99.90
17986;DHT22;9118;48.122;11.546;2022-12-18T07:33:24;-1.20;99.90
17986;DHT22;9118;48.122;11.546;2022-12-18T07:35:51;-0.80;99.90
17986;DHT22;9118;48.122;11.546;2022-12-18T07:38:20;-1.40;99.90
17986;DHT22;9118;48.122;11.546;2022-12-18T07:40:47;-1.30;99.90
17986;DHT22;9118;48.122;11.546;2022-12-18T07:43:14;-1.40;99.90
17986;DHT22;9118;48.122;11.546;2022-12-18T07:45:42;-1.30;99.90
17986;DHT22;9118;48.122;11.546;2022-12-18T07:48:09;-1.40;99.90
17986;DHT22;9118;48.122;11.546;2022-12-18T07:50:36;-1.70;99.90
17986;DHT22;9118;48.122;11.546;2022-12-18T07:53:03;-1.60;99.90
17986;DHT22;9118;48.122;11.546;2022-12-18T07:55:32;-1.40;99.90
17986;DHT22;9118;48.122;11.546;2022-12-18T07:58:01;-2.00;99.90
17986;DHT22;9118;48.122;11.546;2022-12-18T08:00:28;-1.90;99.90
17986;DHT22;9118;48.122;11.546;2022-12-18T08:02:55;-1.50;99.90
17986;DHT22;9118;48.122;11.546;2022-12-18T08:05:23;-2.10;99.90
17986;DHT22;9118;48.122;11.546;2022-12-18T08:07:50;-1.40;99.90
17986;DHT22;9118;48.122;11.546;2022-12-18T08:10:17;-1.40;99.90
17986;DHT22;9118;48.122;11.546;2022-12-18T08:12:49;-1.40;99.90
17986;DHT22;9118;48.122;11.546;2022-12-18T08:15:16;-1.10;99.90
17986;DHT22;9118;48.122;11.546;2022-12-18T08:17:43;-1.30;99.90
17986;DHT22;9118;48.122;11.546;2022-12-18T08:20:11;-0.60;99.90
17986;DHT22;9118;48.122;11.546;2022-12-18T08:22:39;-1.40;99.90
17986;DHT22;9118;48.122;11.546;2022-12-18T08:25:07;-1.30;99.90
17986;DHT22;9118;48.122;11.546;2022-12-18T08:27:34;-1.20;99.90
17986;DHT22;9118;48.122;11.546;2022-12-18T08:30:03;-1.10;99.90
17986;DHT22;9118;48.122;11.546;2022-12-18T08:32:30;-1.10;99.90
17986;DHT22;9118;48.122;11.546;2022-12-18T08:34:58;-1.10;99.90
17986;DHT22;9118;48.122;11.546;2022-12-18T08:37:25;-1.30;99.90
17986;DHT22;9118;48.122;11.546;2022-12-18T08:39:52;-1.40;99.90
17986;DHT22;9118;48.122;11.546;2022-12-18T08:42:19;-1.40;99.90
17986;DHT22;9118;48.122;11.546;2022-12-18T08:45:06;-1.40;99.90
17986;DHT22;9118;48.122;11.546;2022-12-18T08:47:34;-1.30;99.90
17986;DHT22;9118;48.122;11.546;2022-12-18T08:50:01;-1.10;99.90
17986;DHT22;9118;48.122;11.546;2022-12-18T08:52:31;-1.10;99.90
17986;DHT22;9118;48.122;11.546;2022-12-18T08:54:58;-1.10;99.90
17986;DHT22;9118;48.122;11.546;2022-12-18T08:57:25;-0.80;99.90
17986;DHT22;9118;48.122;11.546;2022-12-18T08:59:52;-1.10;99.90
17986;DHT22;9118;48.122;11.546;2022-12-18T09:02:21;-1.10;99.90
17986;DHT22;9118;48.122;11.546;2022-12-18T09:04:48;-1.50;99.90
17986;DHT22;9118;48.122;11.546;2022-12-18T09:07:15;-1.10;99.90
17986;DHT22;9118;48.122;11.546;2022-12-18T09:09:42;-0.40;99.90
17986;DHT22;9118;48.122;11.546;2022-12-18T09:12:09;-0.90;99.90
17986;DHT22;9118;48.122;11.546;2022-12-18T09:14:36;-0.80;99.90
17986;DHT22;9118;48.122;11.546;2022-12-18T09:17:03;-0.70;99.90
17986;DHT22;9118;48.122;11.546;2022-12-18T09:19:32;-0.40;99.90
17986;DHT22;9118;48.122;11.546;2022-12-18T09:21:59;-0.50;99.90
17986;DHT22;9118;48.122;11.546;2022-12-18T09:24:26;-0.60;99.90
17986;DHT22;9118;48.122;11.546;2022-12-18T09:26:53;-0.40;99.90
17986;DHT22;9118;48.122;11.546;2022-12-18T09:29:21;-0.50;99.90
17986;DHT22;9118;48.122;11.546;2022-12-18T09:31:48;-0.30;99.90
17986;DHT22;9118;48.122;11.546;2022-12-18T09:34:15;-0.30;99.90
17986;DHT22;9118;48.122;11.546;2022-12-18T09:36:43;-0.60;99.90
17986;DHT22;9118;48.122;11.546;2022-12-18T09:39:10;-0.60;99.90
17986;DHT22;9118;48.122;11.546;2022-12-18T09:41:47;-0.50;99.90
17986;DHT22;9118;48.122;11.546;2022-12-18T09:44:24;-0.40;99.90
17986;DHT22;9118;48.122;11.546;2022-12-18T09:47:03;0.60;99.90
17986;DHT22;9118;48.122;11.546;2022-12-18T09:49:39;-1.50;99.90
17986;DHT22;9118;48.122;11.546;2022-12-18T09:52:14;-0.90;99.90
17986;DHT22;9118;48.122;11.546;2022-12-18T09:54:45;0.00;99.90
17986;DHT22;9118;48.122;11.546;2022-12-18T09:57:14;-0.10;99.90
17986;DHT22;9118;48.122;11.546;2022-12-18T09:59:43;-0.10;99.90
17986;DHT22;9118;48.122;11.546;2022-12-18T10:02:17;-0.10;99.90
17986;DHT22;9118;48.122;11.546;2022-12-18T10:04:55;-0.20;99.90
17986;DHT22;9118;48.122;11.546;2022-12-18T10:07:43;-0.20;99.90
17986;DHT22;9118;48.122;11.546;2022-12-18T10:10:22;-0.20;99.90
17986;DHT22;9118;48.122;11.546;2022-12-18T10:12:57;0.20;99.90
17986;DHT22;9118;48.122;11.546;2022-12-18T10:15:34;-0.20;99.90
17986;DHT22;9118;48.122;11.546;2022-12-18T10:18:10;-0.50;99.90
17986;DHT22;9118;48.122;11.546;2022-12-18T10:20:43;-0.30;99.90
17986;DHT22;9118;48.122;11.546;2022-12-18T10:23:17;0.60;99.90
17986;DHT22;9118;48.122;11.546;2022-12-18T10:25:51;0.20;99.90
17986;DHT22;9118;48.122;11.546;2022-12-18T10:28:20;-0.30;99.90
17986;DHT22;9118;48.122;11.546;2022-12-18T10:30:48;-0.20;99.90
17986;DHT22;9118;48.122;11.546;2022-12-18T10:33:18;-0.30;99.90
17986;DHT22;9118;48.122;11.546;2022-12-18T10:35:47;-0.10;99.90
17986;DHT22;9118;48.122;11.546;2022-12-18T10:38:23;0.00;99.90
17986;DHT22;9118;48.122;11.546;2022-12-18T10:40:53;0.20;99.90
17986;DHT22;9118;48.122;11.546;2022-12-18T10:43:23;0.30;99.90
17986;DHT22;9118;48.122;11.546;2022-12-18T10:46:03;1.00;99.90
17986;DHT22;9118;48.122;11.546;2022-12-18T10:48:33;0.30;99.90
17986;DHT22;9118;48.122;11.546;2022-12-18T10:51:00;0.60;99.90
17986;DHT22;9118;48.122;11.546;2022-12-18T10:53:32;1.10;99.90
17986;DHT22;9118;48.122;11.546;2022-12-18T10:56:02;0.20;99.90
17986;DHT22;9118;48.122;11.546;2022-12-18T10:58:31;0.20;99.90
17986;DHT22;9118;48.122;11.546;2022-12-18T11:01:04;0.30;99.90
17986;DHT22;9118;48.122;11.546;2022-12-18T11:03:33;0.30;99.90
17986;DHT22;9118;48.122;11.546;2022-12-18T11:06:04;0.30;99.90
17986;DHT22;9118;48.122;11.546;2022-12-18T11:08:33;0.00;99.90
17986;DHT22;9118;48.122;11.546;2022-12-18T11:11:01;-0.30;99.90
17986;DHT22;9118;48.122;11.546;2022-12-18T11:13:30;-1.00;99.90
17986;DHT22;9118;48.122;11.546;2022-12-18T11:15:58;-0.80;99.90
17986;DHT22;9118;48.122;11.546;2022-12-18T11:18:28;-0.80;99.90
17986;DHT22;9118;48.122;11.546;2022-12-18T11:20:57;-1.60;99.90
17986;DHT22;9118;48.122;11.546;2022-12-18T11:23:26;-0.90;99.90
17986;DHT22;9118;48.122;11.546;2022-12-18T11:25:57;-0.70;99.90
17986;DHT22;9118;48.122;11.546;2022-12-18T11:28:36;-0.70;99.90
17986;DHT22;9118;48.122;11.546;2022-12-18T11:31:19;-0.20;99.90
17986;DHT22;9118;48.122;11.546;2022-12-18T11:33:54;-0.60;99.90
17986;DHT22;9118;48.122;11.546;2022-12-18T11:36:23;-0.50;99.90
17986;DHT22;9118;48.122;11.546;2022-12-18T11:38:54;-0.20;99.90
17986;DHT22;9118;48.122;11.546;2022-12-18T11:41:29;0.00;99.90
17986;DHT22;9118;48.122;11.546;2022-12-18T11:44:15;0.10;99.90
17986;DHT22;9118;48.122;11.546;2022-12-18T11:46:48;0.90;99.90
17986;DHT22;9118;48.122;11.546;2022-12-18T11:49:21;0.20;99.90
17986;DHT22;9118;48.122;11.546;2022-12-18T11:51:53;0.50;99.90
17986;DHT22;9118;48.122;11.546;2022-12-18T11:54:22;0.50;99.90
17986;DHT22;9118;48.122;11.546;2022-12-18T11:56:55;0.60;99.90
17986;DHT22;9118;48.122;11.546;2022-12-18T11:59:29;1.60;99.90
17986;DHT22;9118;48.122;11.546;2022-12-18T12:02:09;0.60;99.90
17986;DHT22;9118;48.122;11.546;2022-12-18T12:04:56;0.70;99.90
17986;DHT22;9118;48.122;11.546;2022-12-18T12:07:37;0.50;99.90
17986;DHT22;9118;48.122;11.546;2022-12-18T12:10:13;0.60;99.90
17986;DHT22;9118;48.122;11.546;2022-12-18T12:12:55;0.70;99.90
17986;DHT22;9118;48.122;11.546;2022-12-18T12:15:34;0.20;99.90
17986;DHT22;9118;48.122;11.546;2022-12-18T12:18:12;0.60;99.90
17986;DHT22;9118;48.122;11.546;2022-12-18T12:20:49;0.40;99.90
17986;DHT22;9118;48.122;11.546;2022-12-18T12:23:24;0.20;99.90
17986;DHT22;9118;48.122;11.546;2022-12-18T12:25:56;0.40;99.90
17986;DHT22;9118;48.122;11.546;2022-12-18T12:28:48;0.70;99.90
17986;DHT22;9118;48.122;11.546;2022-12-18T12:31:30;0.40;99.90
17986;DHT22;9118;48.122;11.546;2022-12-18T12:34:05;0.40;99.90
17986;DHT22;9118;48.122;11.546;2022-12-18T12:36:44;0.70;99.90
17986;DHT22;9118;48.122;11.546;2022-12-18T12:39:16;0.40;99.90
17986;DHT22;9118;48.122;11.546;2022-12-18T12:41:45;0.50;99.90
17986;DHT22;9118;48.122;11.546;2022-12-18T12:44:34;0.60;99.90
17986;DHT22;9118;48.122;11.546;2022-12-18T12:47:10;0.50;99.90
17986;DHT22;9118;48.122;11.546;2022-12-18T12:49:39;0.80;99.90
17986;DHT22;9118;48.122;11.546;2022-12-18T12:52:17;-0.10;99.90
17986;DHT22;9118;48.122;11.546;2022-12-18T12:54:47;0.50;99.90
17986;DHT22;9118;48.122;11.546;2022-12-18T12:57:17;0.20;99.90
17986;DHT22;9118;48.122;11.546;2022-12-18T12:59:57;0.50;99.90
17986;DHT22;9118;48.122;11.546;2022-12-18T13:02:31;0.50;99.90
17986;DHT22;9118;48.122;11.546;2022-12-18T13:05:06;1.20;99.90
17986;DHT22;9118;48.122;11.546;2022-12-18T13:07:40;0.50;99.90
17986;DHT22;9118;48.122;11.546;2022-12-18T13:10:20;0.00;99.90
17986;DHT22;9118;48.122;11.546;2022-12-18T13:12:53;0.60;99.90
17986;DHT22;9118;48.122;11.546;2022-12-18T13:15:30;0.50;99.90
17986;DHT22;9118;48.122;11.546;2022-12-18T13:18:18;1.50;99.90
17986;DHT22;9118;48.122;11.546;2022-12-18T13:20:50;0.40;99.90
17986;DHT22;9118;48.122;11.546;2022-12-18T13:23:33;0.30;99.90
17986;DHT22;9118;48.122;11.546;2022-12-18T13:26:29;0.30;99.90
17986;DHT22;9118;48.122;11.546;2022-12-18T13:28:59;0.20;99.90
17986;DHT22;9118;48.122;11.546;2022-12-18T13:31:59;0.20;99.90
17986;DHT22;9118;48.122;11.546;2022-12-18T13:34:28;0.10;99.90
17986;DHT22;9118;48.122;11.546;2022-12-18T13:36:57;0.50;99.90
17986;DHT22;9118;48.122;11.546;2022-12-18T13:39:43;0.30;99.90
17986;DHT22;9118;48.122;11.546;2022-12-18T13:42:39;0.20;99.90
17986;DHT22;9118;48.122;11.546;2022-12-18T13:45:42;0.20;99.90
17986;DHT22;9118;48.122;11.546;2022-12-18T13:48:19;0.10;99.90
17986;DHT22;9118;48.122;11.546;2022-12-18T13:50:55;0.10;99.90
17986;DHT22;9118;48.122;11.546;2022-12-18T13:53:26;0.00;99.90
17986;DHT22;9118;48.122;11.546;2022-12-18T13:55:53;-0.20;99.90
17986;DHT22;9118;48.122;11.546;2022-12-18T13:58:20;-0.10;99.90
17986;DHT22;9118;48.122;11.546;2022-12-18T14:00:48;-0.10;99.90
17986;DHT22;9118;48.122;11.546;2022-12-18T14:03:22;-0.30;99.90
17986;DHT22;9118;48.122;11.546;2022-12-18T14:05:54;-0.30;99.90
17986;DHT22;9118;48.122;11.546;2022-12-18T14:08:23;-0.40;99.90
17986;DHT22;9118;48.122;11.546;2022-12-18T14:10:53;0.10;99.90
17986;DHT22;9118;48.122;11.546;2022-12-18T14:13:24;-0.50;99.90
17986;DHT22;9118;48.122;11.546;2022-12-18T14:15:54;-0.60;99.90
17986;DHT22;9118;48.122;11.546;2022-12-18T14:18:25;-0.20;99.90
17986;DHT22;9118;48.122;11.546;2022-12-18T14:20:56;-1.10;99.90
17986;DHT22;9118;48.122;11.546;2022-12-18T14:23:32;-0.50;99.90
17986;DHT22;9118;48.122;11.546;2022-12-18T14:26:00;-0.40;99.90
17986;DHT22;9118;48.122;11.546;2022-12-18T14:28:28;-0.60;99.90
17986;DHT22;9118;48.122;11.546;2022-12-18T14:30:55;-0.80;99.90
17986;DHT22;9118;48.122;11.546;2022-12-18T14:33:25;-0.70;99.90
17986;DHT22;9118;48.122;11.546;2022-12-18T14:35:55;-1.20;99.90
17986;DHT22;9118;48.122;11.546;2022-12-18T14:38:26;-0.70;99.90
17986;DHT22;9118;48.122;11.546;2022-12-18T14:40:57;0.10;99.90
17986;DHT22;9118;48.122;11.546;2022-12-18T14:43:25;-1.30;99.90
17986;DHT22;9118;48.122;11.546;2022-12-18T14:45:53;-1.60;99.90
17986;DHT22;9118;48.122;11.546;2022-12-18T14:48:22;-1.60;99.90
17986;DHT22;9118;48.122;11.546;2022-12-18T14:51:00;-1.30;99.90
17986;DHT22;9118;48.122;11.546;2022-12-18T14:53:36;-0.50;99.90
17986;DHT22;9118;48.122;11.546;2022-12-18T14:56:10;-0.90;99.90
17986;DHT22;9118;48.122;11.546;2022-12-18T14:58:45;-1.10;99.90
17986;DHT22;9118;48.122;11.546;2022-12-18T15:01:21;-1.00;99.90
17986;DHT22;9118;48.122;11.546;2022-12-18T15:03:50;-0.90;99.90
17986;DHT22;9118;48.122;11.546;2022-12-18T15:06:26;-1.10;99.90
17986;DHT22;9118;48.122;11.546;2022-12-18T15:08:54;-0.80;99.90
17986;DHT22;9118;48.122;11.546;2022-12-18T15:11:33;-1.00;99.90
17986;DHT22;9118;48.122;11.546;2022-12-18T15:17:06;-1.60;99.90
17986;DHT22;9118;48.122;11.546;2022-12-18T15:19:41;-1.70;99.90
17986;DHT22;9118;48.122;11.546;2022-12-18T15:22:25;-1.70;99.90
17986;DHT22;9118;48.122;11.546;2022-12-18T15:24:53;-1.60;99.90
17986;DHT22;9118;48.122;11.546;2022-12-18T15:27:29;-1.50;99.90
17986;DHT22;9118;48.122;11.546;2022-12-18T15:30:02;-1.30;99.90
17986;DHT22;9118;48.122;11.546;2022-12-18T15:32:29;-0.90;99.90
17986;DHT22;9118;48.122;11.546;2022-12-18T15:35:03;-1.20;99.90
17986;DHT22;9118;48.122;11.546;2022-12-18T15:37:32;-1.00;99.90
17986;DHT22;9118;48.122;11.546;2022-12-18T15:39:59;-1.40;99.90
17986;DHT22;9118;48.122;11.546;2022-12-18T15:42:27;-1.90;99.90
17986;DHT22;9118;48.122;11.546;2022-12-18T15:45:12;-1.40;99.90
17986;DHT22;9118;48.122;11.546;2022-12-18T15:47:39;-1.80;99.90
17986;DHT22;9118;48.122;11.546;2022-12-18T15:50:08;-2.50;99.90
17986;DHT22;9118;48.122;11.546;2022-12-18T15:52:43;-2.00;99.90
17986;DHT22;9118;48.122;11.546;2022-12-18T15:55:11;-1.90;99.90
17986;DHT22;9118;48.122;11.546;2022-12-18T15:57:57;-1.60;99.90
17986;DHT22;9118;48.122;11.546;2022-12-18T16:00:24;-1.60;99.90